sensor_id;sensor_type;location;lat;lon;timestamp;P1;durP1;ratioP1;P2;durP2;ratioP2
69991;SDS011;57332;51.320;-0.580;2022-07-23T00:00:16;5.30;;;2.15;;
69991;SDS011;57332;51.320;-0.580;2022-07-23T00:02:43;4.32;;;1.90;;
69991;SDS011;57332;51.320;-0.580;2022-07-23T00:05:10;4.78;;;1.98;;
69991;SDS011;57332;51.320;-0.580;2022-07-23T00:07:37;3.78;;;2.10;;
69991;SDS011;57332;51.320;-0.580;2022-07-23T00:10:04;5.28;;;2.30;;
69991;SDS011;57332;51.320;-0.580;2022-07-23T00:12:32;6.38;;;2.63;;
69991;SDS011;57332;51.320;-0.580;2022-07-23T00:14:59;5.00;;;2.17;;
69991;SDS011;57332;51.320;-0.580;2022-07-23T00:17:26;6.07;;;2.85;;
69991;SDS011;57332;51.320;-0.580;2022-07-23T00:19:52;5.00;;;2.20;;
69991;SDS011;57332;51.320;-0.580;2022-07-23T00:22:20;4.63;;;2.15;;
69991;SDS011;57332;51.320;-0.580;2022-07-23T00:24:47;5.40;;;2.38;;
69991;SDS011;57332;51.320;-0.580;2022-07-23T00:27:34;4.95;;;2.17;;
69991;SDS011;57332;51.320;-0.580;2022-07-23T00:30:01;7.63;;;2.75;;
69991;SDS011;57332;51.320;-0.580;2022-07-23T00:32:28;6.00;;;2.20;;
69991;SDS011;57332;51.320;-0.580;2022-07-23T00:35:16;4.28;;;2.42;;
69991;SDS011;57332;51.320;-0.580;2022-07-23T00:37:43;4.70;;;2.30;;
69991;SDS011;57332;51.320;-0.580;2022-07-23T00:40:10;3.72;;;2.30;;
69991;SDS011;57332;51.320;-0.580;2022-07-23T00:42:37;5.18;;;2.30;;
69991;SDS011;57332;51.320;-0.580;2022-07-23T00:45:05;4.85;;;2.10;;
69991;SDS011;57332;51.320;-0.580;2022-07-23T00:47:32;5.10;;;2.15;;
69991;SDS011;57332;51.320;-0.580;2022-07-23T00:49:59;6.40;;;2.17;;
69991;SDS011;57332;51.320;-0.580;2022-07-23T00:52:26;4.47;;;2.45;;
69991;SDS011;57332;51.320;-0.580;2022-07-23T00:54:53;3.80;;;2.00;;
69991;SDS011;57332;51.320;-0.580;2022-07-23T00:57:20;4.28;;;2.50;;
69991;SDS011;57332;51.320;-0.580;2022-07-23T00:59:54;5.40;;;2.60;;
69991;SDS011;57332;51.320;-0.580;2022-07-23T01:02:21;4.25;;;2.50;;
69991;SDS011;57332;51.320;-0.580;2022-07-23T01:04:48;7.32;;;2.40;;
69991;SDS011;57332;51.320;-0.580;2022-07-23T01:07:15;5.05;;;2.33;;
69991;SDS011;57332;51.320;-0.580;2022-07-23T01:09:42;4.72;;;2.20;;
69991;SDS011;57332;51.320;-0.580;2022-07-23T01:12:09;7.38;;;2.63;;
69991;SDS011;57332;51.320;-0.580;2022-07-23T01:14:36;5.05;;;2.13;;
69991;SDS011;57332;51.320;-0.580;2022-07-23T01:17:03;5.22;;;2.50;;
69991;SDS011;57332;51.320;-0.580;2022-07-23T01:19:31;6.63;;;3.00;;
69991;SDS011;57332;51.320;-0.580;2022-07-23T01:21:58;5.30;;;2.40;;
69991;SDS011;57332;51.320;-0.580;2022-07-23T01:24:27;7.30;;;2.70;;
69991;SDS011;57332;51.320;-0.580;2022-07-23T01:26:54;9.63;;;2.67;;
69991;SDS011;57332;51.320;-0.580;2022-07-23T01:29:21;6.38;;;2.67;;
69991;SDS011;57332;51.320;-0.580;2022-07-23T01:31:48;5.85;;;2.53;;
69991;SDS011;57332;51.320;-0.580;2022-07-23T01:34:15;5.47;;;2.50;;
69991;SDS011;57332;51.320;-0.580;2022-07-23T01:36:42;6.10;;;2.63;;
69991;SDS011;57332;51.320;-0.580;2022-07-23T01:39:09;7.63;;;2.70;;
69991;SDS011;57332;51.320;-0.580;2022-07-23T01:41:37;7.20;;;2.50;;
69991;SDS011;57332;51.320;-0.580;2022-07-23T01:44:05;6.72;;;2.65;;
69991;SDS011;57332;51.320;-0.580;2022-07-23T01:46:32;4.32;;;2.65;;
69991;SDS011;57332;51.320;-0.580;2022-07-23T01:48:59;6.10;;;2.90;;
69991;SDS011;57332;51.320;-0.580;2022-07-23T01:51:26;6.72;;;2.60;;
69991;SDS011;57332;51.320;-0.580;2022-07-23T01:53:53;5.38;;;2.50;;
69991;SDS011;57332;51.320;-0.580;2022-07-23T01:56:20;5.55;;;2.50;;
69991;SDS011;57332;51.320;-0.580;2022-07-23T01:58:48;6.38;;;2.80;;
69991;SDS011;57332;51.320;-0.580;2022-07-23T02:01:15;8.43;;;3.20;;
69991;SDS011;57332;51.320;-0.580;2022-07-23T02:03:42;8.57;;;3.00;;
69991;SDS011;57332;51.320;-0.580;2022-07-23T02:06:09;6.50;;;3.17;;
69991;SDS011;57332;51.320;-0.580;2022-07-23T02:08:36;4.63;;;2.90;;
69991;SDS011;57332;51.320;-0.580;2022-07-23T02:11:03;5.93;;;2.50;;
69991;SDS011;57332;51.320;-0.580;2022-07-23T02:13:30;7.72;;;2.88;;
69991;SDS011;57332;51.320;-0.580;2022-07-23T02:16:00;8.35;;;2.70;;
69991;SDS011;57332;51.320;-0.580;2022-07-23T02:18:27;5.28;;;2.53;;
69991;SDS011;57332;51.320;-0.580;2022-07-23T02:20:54;5.38;;;2.50;;
69991;SDS011;57332;51.320;-0.580;2022-07-23T02:23:21;6.10;;;2.50;;
69991;SDS011;57332;51.320;-0.580;2022-07-23T02:25:47;6.28;;;2.92;;
69991;SDS011;57332;51.320;-0.580;2022-07-23T02:28:15;7.47;;;2.53;;
69991;SDS011;57332;51.320;-0.580;2022-07-23T02:30:42;6.20;;;2.72;;
69991;SDS011;57332;51.320;-0.580;2022-07-23T02:33:08;6.63;;;2.65;;
69991;SDS011;57332;51.320;-0.580;2022-07-23T02:35:35;5.40;;;2.40;;
69991;SDS011;57332;51.320;-0.580;2022-07-23T02:38:02;5.28;;;2.80;;
69991;SDS011;57332;51.320;-0.580;2022-07-23T02:40:29;5.05;;;2.63;;
69991;SDS011;57332;51.320;-0.580;2022-07-23T02:42:56;5.03;;;2.40;;
69991;SDS011;57332;51.320;-0.580;2022-07-23T02:45:23;5.03;;;2.50;;
69991;SDS011;57332;51.320;-0.580;2022-07-23T02:47:50;5.57;;;2.75;;
69991;SDS011;57332;51.320;-0.580;2022-07-23T02:50:17;5.70;;;2.45;;
69991;SDS011;57332;51.320;-0.580;2022-07-23T02:52:44;4.00;;;2.60;;
69991;SDS011;57332;51.320;-0.580;2022-07-23T02:55:11;9.45;;;2.95;;
69991;SDS011;57332;51.320;-0.580;2022-07-23T02:57:38;7.13;;;2.50;;
69991;SDS011;57332;51.320;-0.580;2022-07-23T03:00:06;4.63;;;2.60;;
69991;SDS011;57332;51.320;-0.580;2022-07-23T03:02:34;8.30;;;2.33;;
69991;SDS011;57332;51.320;-0.580;2022-07-23T03:05:01;4.95;;;2.80;;
69991;SDS011;57332;51.320;-0.580;2022-07-23T03:07:27;5.15;;;2.38;;
69991;SDS011;57332;51.320;-0.580;2022-07-23T03:09:54;6.18;;;2.80;;
69991;SDS011;57332;51.320;-0.580;2022-07-23T03:12:21;4.93;;;2.40;;
69991;SDS011;57332;51.320;-0.580;2022-07-23T03:14:48;7.97;;;2.72;;
69991;SDS011;57332;51.320;-0.580;2022-07-23T03:17:16;4.45;;;2.47;;
69991;SDS011;57332;51.320;-0.580;2022-07-23T03:19:43;4.13;;;2.53;;
69991;SDS011;57332;51.320;-0.580;2022-07-23T03:22:10;6.10;;;2.63;;
69991;SDS011;57332;51.320;-0.580;2022-07-23T03:24:37;5.35;;;2.80;;
69991;SDS011;57332;51.320;-0.580;2022-07-23T03:27:23;5.93;;;2.70;;
69991;SDS011;57332;51.320;-0.580;2022-07-23T03:29:54;4.60;;;2.63;;
69991;SDS011;57332;51.320;-0.580;2022-07-23T03:32:23;6.57;;;3.10;;
69991;SDS011;57332;51.320;-0.580;2022-07-23T03:34:51;5.95;;;3.00;;
69991;SDS011;57332;51.320;-0.580;2022-07-23T03:37:18;6.45;;;2.65;;
69991;SDS011;57332;51.320;-0.580;2022-07-23T03:39:47;5.70;;;2.80;;
69991;SDS011;57332;51.320;-0.580;2022-07-23T03:42:14;5.85;;;3.17;;
69991;SDS011;57332;51.320;-0.580;2022-07-23T03:44:41;6.47;;;2.88;;
69991;SDS011;57332;51.320;-0.580;2022-07-23T03:47:09;4.40;;;2.65;;
69991;SDS011;57332;51.320;-0.580;2022-07-23T03:49:36;5.63;;;2.63;;
69991;SDS011;57332;51.320;-0.580;2022-07-23T03:52:03;4.85;;;2.60;;
69991;SDS011;57332;51.320;-0.580;2022-07-23T03:54:31;7.00;;;3.10;;
69991;SDS011;57332;51.320;-0.580;2022-07-23T03:56:58;5.53;;;2.88;;
69991;SDS011;57332;51.320;-0.580;2022-07-23T03:59:25;5.63;;;2.78;;
69991;SDS011;57332;51.320;-0.580;2022-07-23T04:01:52;5.20;;;2.65;;
69991;SDS011;57332;51.320;-0.580;2022-07-23T04:04:19;6.47;;;2.92;;
69991;SDS011;57332;51.320;-0.580;2022-07-23T04:06:46;6.97;;;3.00;;
69991;SDS011;57332;51.320;-0.580;2022-07-23T04:09:13;5.78;;;2.40;;
69991;SDS011;57332;51.320;-0.580;2022-07-23T04:11:40;6.72;;;2.97;;
69991;SDS011;57332;51.320;-0.580;2022-07-23T04:14:07;6.00;;;2.83;;
69991;SDS011;57332;51.320;-0.580;2022-07-23T04:16:33;4.88;;;2.88;;
69991;SDS011;57332;51.320;-0.580;2022-07-23T04:19:01;6.75;;;2.83;;
69991;SDS011;57332;51.320;-0.580;2022-07-23T04:21:28;6.15;;;2.85;;
69991;SDS011;57332;51.320;-0.580;2022-07-23T04:23:55;7.70;;;3.47;;
69991;SDS011;57332;51.320;-0.580;2022-07-23T04:26:22;7.50;;;3.35;;
69991;SDS011;57332;51.320;-0.580;2022-07-23T04:28:49;6.15;;;3.33;;
69991;SDS011;57332;51.320;-0.580;2022-07-23T04:31:15;9.68;;;3.90;;
69991;SDS011;57332;51.320;-0.580;2022-07-23T04:33:43;6.60;;;4.05;;
69991;SDS011;57332;51.320;-0.580;2022-07-23T04:36:09;9.10;;;3.78;;
69991;SDS011;57332;51.320;-0.580;2022-07-23T04:38:36;8.20;;;3.80;;
69991;SDS011;57332;51.320;-0.580;2022-07-23T04:41:03;8.05;;;3.63;;
69991;SDS011;57332;51.320;-0.580;2022-07-23T04:43:30;9.45;;;3.97;;
69991;SDS011;57332;51.320;-0.580;2022-07-23T04:45:57;8.50;;;4.32;;
69991;SDS011;57332;51.320;-0.580;2022-07-23T04:48:24;11.05;;;4.38;;
69991;SDS011;57332;51.320;-0.580;2022-07-23T04:50:53;9.98;;;4.05;;
69991;SDS011;57332;51.320;-0.580;2022-07-23T04:53:20;8.85;;;4.38;;
69991;SDS011;57332;51.320;-0.580;2022-07-23T04:55:47;9.75;;;4.13;;
69991;SDS011;57332;51.320;-0.580;2022-07-23T04:58:14;9.10;;;4.20;;
69991;SDS011;57332;51.320;-0.580;2022-07-23T05:00:41;9.00;;;4.20;;
69991;SDS011;57332;51.320;-0.580;2022-07-23T05:03:08;7.97;;;3.97;;
69991;SDS011;57332;51.320;-0.580;2022-07-23T05:05:35;9.18;;;4.25;;
69991;SDS011;57332;51.320;-0.580;2022-07-23T05:08:02;7.80;;;4.32;;
69991;SDS011;57332;51.320;-0.580;2022-07-23T05:10:30;9.45;;;3.85;;
69991;SDS011;57332;51.320;-0.580;2022-07-23T05:12:57;12.00;;;4.10;;
69991;SDS011;57332;51.320;-0.580;2022-07-23T05:15:24;9.07;;;3.97;;
69991;SDS011;57332;51.320;-0.580;2022-07-23T05:17:51;11.95;;;4.53;;
69991;SDS011;57332;51.320;-0.580;2022-07-23T05:20:18;8.68;;;4.28;;
69991;SDS011;57332;51.320;-0.580;2022-07-23T05:22:45;6.63;;;4.00;;
69991;SDS011;57332;51.320;-0.580;2022-07-23T05:25:12;10.20;;;4.22;;
69991;SDS011;57332;51.320;-0.580;2022-07-23T05:27:38;8.35;;;4.05;;
69991;SDS011;57332;51.320;-0.580;2022-07-23T05:30:06;9.55;;;4.05;;
69991;SDS011;57332;51.320;-0.580;2022-07-23T05:32:33;9.45;;;4.38;;
69991;SDS011;57332;51.320;-0.580;2022-07-23T05:34:59;11.30;;;4.57;;
69991;SDS011;57332;51.320;-0.580;2022-07-23T05:37:26;8.68;;;4.50;;
69991;SDS011;57332;51.320;-0.580;2022-07-23T05:39:53;10.18;;;4.30;;
69991;SDS011;57332;51.320;-0.580;2022-07-23T05:42:20;6.10;;;3.85;;
69991;SDS011;57332;51.320;-0.580;2022-07-23T05:44:48;8.40;;;4.32;;
69991;SDS011;57332;51.320;-0.580;2022-07-23T05:47:15;11.07;;;4.55;;
69991;SDS011;57332;51.320;-0.580;2022-07-23T05:49:41;9.73;;;4.20;;
69991;SDS011;57332;51.320;-0.580;2022-07-23T05:52:08;9.57;;;4.65;;
69991;SDS011;57332;51.320;-0.580;2022-07-23T05:54:36;9.65;;;4.72;;
69991;SDS011;57332;51.320;-0.580;2022-07-23T05:57:03;10.32;;;4.60;;
69991;SDS011;57332;51.320;-0.580;2022-07-23T05:59:30;8.25;;;4.45;;
69991;SDS011;57332;51.320;-0.580;2022-07-23T06:01:57;9.65;;;4.45;;
69991;SDS011;57332;51.320;-0.580;2022-07-23T06:04:24;10.52;;;4.32;;
69991;SDS011;57332;51.320;-0.580;2022-07-23T06:06:51;8.18;;;4.00;;
69991;SDS011;57332;51.320;-0.580;2022-07-23T06:09:18;8.18;;;4.10;;
69991;SDS011;57332;51.320;-0.580;2022-07-23T06:11:45;7.70;;;3.95;;
69991;SDS011;57332;51.320;-0.580;2022-07-23T06:14:12;10.25;;;3.95;;
69991;SDS011;57332;51.320;-0.580;2022-07-23T06:16:39;9.85;;;4.43;;
69991;SDS011;57332;51.320;-0.580;2022-07-23T06:19:06;8.60;;;3.70;;
69991;SDS011;57332;51.320;-0.580;2022-07-23T06:21:33;7.93;;;4.13;;
69991;SDS011;57332;51.320;-0.580;2022-07-23T06:24:16;8.10;;;4.07;;
69991;SDS011;57332;51.320;-0.580;2022-07-23T06:26:43;9.23;;;3.70;;
69991;SDS011;57332;51.320;-0.580;2022-07-23T06:29:10;7.47;;;4.35;;
69991;SDS011;57332;51.320;-0.580;2022-07-23T06:31:38;10.70;;;4.38;;
69991;SDS011;57332;51.320;-0.580;2022-07-23T06:34:05;7.40;;;3.80;;
69991;SDS011;57332;51.320;-0.580;2022-07-23T06:36:32;6.78;;;3.42;;
69991;SDS011;57332;51.320;-0.580;2022-07-23T06:39:01;8.32;;;4.10;;
69991;SDS011;57332;51.320;-0.580;2022-07-23T06:41:29;5.97;;;3.53;;
69991;SDS011;57332;51.320;-0.580;2022-07-23T06:43:56;8.35;;;3.75;;
69991;SDS011;57332;51.320;-0.580;2022-07-23T06:46:23;7.95;;;4.10;;
69991;SDS011;57332;51.320;-0.580;2022-07-23T06:48:54;8.32;;;3.30;;
69991;SDS011;57332;51.320;-0.580;2022-07-23T06:51:21;7.05;;;3.50;;
69991;SDS011;57332;51.320;-0.580;2022-07-23T06:53:48;7.78;;;3.55;;
69991;SDS011;57332;51.320;-0.580;2022-07-23T06:56:16;7.30;;;4.00;;
69991;SDS011;57332;51.320;-0.580;2022-07-23T06:58:42;7.35;;;3.55;;
69991;SDS011;57332;51.320;-0.580;2022-07-23T07:01:09;6.80;;;3.50;;
69991;SDS011;57332;51.320;-0.580;2022-07-23T07:03:36;7.00;;;3.58;;
69991;SDS011;57332;51.320;-0.580;2022-07-23T07:06:03;8.13;;;3.28;;
69991;SDS011;57332;51.320;-0.580;2022-07-23T07:08:30;6.00;;;3.05;;
69991;SDS011;57332;51.320;-0.580;2022-07-23T07:10:57;8.05;;;3.20;;
69991;SDS011;57332;51.320;-0.580;2022-07-23T07:13:24;8.57;;;3.88;;
69991;SDS011;57332;51.320;-0.580;2022-07-23T07:15:51;6.05;;;3.13;;
69991;SDS011;57332;51.320;-0.580;2022-07-23T07:18:18;9.95;;;3.63;;
69991;SDS011;57332;51.320;-0.580;2022-07-23T07:20:45;8.27;;;3.83;;
69991;SDS011;57332;51.320;-0.580;2022-07-23T07:23:12;6.63;;;3.30;;
69991;SDS011;57332;51.320;-0.580;2022-07-23T07:25:42;7.47;;;3.17;;
69991;SDS011;57332;51.320;-0.580;2022-07-23T07:28:09;7.18;;;3.60;;
69991;SDS011;57332;51.320;-0.580;2022-07-23T07:30:35;6.97;;;3.50;;
69991;SDS011;57332;51.320;-0.580;2022-07-23T07:33:02;8.82;;;3.33;;
69991;SDS011;57332;51.320;-0.580;2022-07-23T07:35:29;6.22;;;3.17;;
69991;SDS011;57332;51.320;-0.580;2022-07-23T07:37:58;5.28;;;3.08;;
69991;SDS011;57332;51.320;-0.580;2022-07-23T07:40:25;7.47;;;3.10;;
69991;SDS011;57332;51.320;-0.580;2022-07-23T07:42:59;5.32;;;3.13;;
69991;SDS011;57332;51.320;-0.580;2022-07-23T07:45:26;7.88;;;3.17;;
69991;SDS011;57332;51.320;-0.580;2022-07-23T07:47:53;6.95;;;3.33;;
69991;SDS011;57332;51.320;-0.580;2022-07-23T07:50:20;4.65;;;2.78;;
69991;SDS011;57332;51.320;-0.580;2022-07-23T07:52:48;5.60;;;2.50;;
69991;SDS011;57332;51.320;-0.580;2022-07-23T07:55:15;6.03;;;2.60;;
69991;SDS011;57332;51.320;-0.580;2022-07-23T07:57:43;8.43;;;2.53;;
69991;SDS011;57332;51.320;-0.580;2022-07-23T08:00:15;6.00;;;2.45;;
69991;SDS011;57332;51.320;-0.580;2022-07-23T08:02:46;5.82;;;2.40;;
69991;SDS011;57332;51.320;-0.580;2022-07-23T08:05:13;4.80;;;2.55;;
69991;SDS011;57332;51.320;-0.580;2022-07-23T08:07:41;5.05;;;2.42;;
69991;SDS011;57332;51.320;-0.580;2022-07-23T08:10:08;7.80;;;2.63;;
69991;SDS011;57332;51.320;-0.580;2022-07-23T08:12:40;5.53;;;2.30;;
69991;SDS011;57332;51.320;-0.580;2022-07-23T08:15:07;5.68;;;2.45;;
69991;SDS011;57332;51.320;-0.580;2022-07-23T08:17:40;5.05;;;2.28;;
69991;SDS011;57332;51.320;-0.580;2022-07-23T08:20:08;8.00;;;2.60;;
69991;SDS011;57332;51.320;-0.580;2022-07-23T08:22:49;5.68;;;2.47;;
69991;SDS011;57332;51.320;-0.580;2022-07-23T08:25:21;4.75;;;2.78;;
69991;SDS011;57332;51.320;-0.580;2022-07-23T08:27:48;5.10;;;2.33;;
69991;SDS011;57332;51.320;-0.580;2022-07-23T08:30:16;6.07;;;2.78;;
69991;SDS011;57332;51.320;-0.580;2022-07-23T08:35:23;5.53;;;2.63;;
69991;SDS011;57332;51.320;-0.580;2022-07-23T08:37:50;3.88;;;2.10;;
69991;SDS011;57332;51.320;-0.580;2022-07-23T08:40:17;4.47;;;2.42;;
69991;SDS011;57332;51.320;-0.580;2022-07-23T08:42:49;5.25;;;2.60;;
69991;SDS011;57332;51.320;-0.580;2022-07-23T08:45:17;5.38;;;2.42;;
69991;SDS011;57332;51.320;-0.580;2022-07-23T08:47:44;5.35;;;2.58;;
69991;SDS011;57332;51.320;-0.580;2022-07-23T08:50:17;5.45;;;2.20;;
69991;SDS011;57332;51.320;-0.580;2022-07-23T08:52:45;4.88;;;2.15;;
69991;SDS011;57332;51.320;-0.580;2022-07-23T08:55:13;4.97;;;1.90;;
69991;SDS011;57332;51.320;-0.580;2022-07-23T08:57:43;3.28;;;2.00;;
69991;SDS011;57332;51.320;-0.580;2022-07-23T09:00:10;3.30;;;1.95;;
69991;SDS011;57332;51.320;-0.580;2022-07-23T09:02:38;3.83;;;2.00;;
69991;SDS011;57332;51.320;-0.580;2022-07-23T09:05:05;4.15;;;2.47;;
69991;SDS011;57332;51.320;-0.580;2022-07-23T09:07:33;4.57;;;1.90;;
69991;SDS011;57332;51.320;-0.580;2022-07-23T09:10:07;4.35;;;1.90;;
69991;SDS011;57332;51.320;-0.580;2022-07-23T09:12:34;2.83;;;1.80;;
69991;SDS011;57332;51.320;-0.580;2022-07-23T09:15:05;3.72;;;2.00;;
69991;SDS011;57332;51.320;-0.580;2022-07-23T09:17:40;3.63;;;1.77;;
69991;SDS011;57332;51.320;-0.580;2022-07-23T09:20:15;2.90;;;1.83;;
69991;SDS011;57332;51.320;-0.580;2022-07-23T09:22:46;5.63;;;1.85;;
69991;SDS011;57332;51.320;-0.580;2022-07-23T09:25:15;4.85;;;1.92;;
69991;SDS011;57332;51.320;-0.580;2022-07-23T09:27:58;2.75;;;1.52;;
69991;SDS011;57332;51.320;-0.580;2022-07-23T09:30:26;4.80;;;2.15;;
69991;SDS011;57332;51.320;-0.580;2022-07-23T09:33:13;4.55;;;1.55;;
69991;SDS011;57332;51.320;-0.580;2022-07-23T09:35:45;2.65;;;1.45;;
69991;SDS011;57332;51.320;-0.580;2022-07-23T09:38:13;3.35;;;1.67;;
69991;SDS011;57332;51.320;-0.580;2022-07-23T09:40:41;3.10;;;1.58;;
69991;SDS011;57332;51.320;-0.580;2022-07-23T09:43:08;4.68;;;1.70;;
69991;SDS011;57332;51.320;-0.580;2022-07-23T09:45:34;4.38;;;1.73;;
69991;SDS011;57332;51.320;-0.580;2022-07-23T09:48:11;4.18;;;1.67;;
69991;SDS011;57332;51.320;-0.580;2022-07-23T09:50:40;2.50;;;1.60;;
69991;SDS011;57332;51.320;-0.580;2022-07-23T09:53:07;4.07;;;1.77;;
69991;SDS011;57332;51.320;-0.580;2022-07-23T09:55:35;3.50;;;1.60;;
69991;SDS011;57332;51.320;-0.580;2022-07-23T09:58:05;2.80;;;1.58;;
69991;SDS011;57332;51.320;-0.580;2022-07-23T10:00:34;2.78;;;1.50;;
69991;SDS011;57332;51.320;-0.580;2022-07-23T10:03:01;2.58;;;1.55;;
69991;SDS011;57332;51.320;-0.580;2022-07-23T10:05:29;3.67;;;1.60;;
69991;SDS011;57332;51.320;-0.580;2022-07-23T10:07:57;3.15;;;1.50;;
69991;SDS011;57332;51.320;-0.580;2022-07-23T10:10:24;3.97;;;1.63;;
69991;SDS011;57332;51.320;-0.580;2022-07-23T10:12:53;2.90;;;1.55;;
69991;SDS011;57332;51.320;-0.580;2022-07-23T10:15:29;3.25;;;1.50;;
69991;SDS011;57332;51.320;-0.580;2022-07-23T10:17:56;3.50;;;1.60;;
69991;SDS011;57332;51.320;-0.580;2022-07-23T10:20:24;4.47;;;1.50;;
69991;SDS011;57332;51.320;-0.580;2022-07-23T10:23:14;3.65;;;1.40;;
69991;SDS011;57332;51.320;-0.580;2022-07-23T10:25:46;2.55;;;1.50;;
69991;SDS011;57332;51.320;-0.580;2022-07-23T10:33:30;2.35;;;1.42;;
69991;SDS011;57332;51.320;-0.580;2022-07-23T10:39:04;3.65;;;1.70;;
69991;SDS011;57332;51.320;-0.580;2022-07-23T10:41:35;2.80;;;1.50;;
69991;SDS011;57332;51.320;-0.580;2022-07-23T10:46:30;2.20;;;1.40;;
69991;SDS011;57332;51.320;-0.580;2022-07-23T10:54:38;3.10;;;1.52;;
69991;SDS011;57332;51.320;-0.580;2022-07-23T10:57:05;2.95;;;1.50;;
69991;SDS011;57332;51.320;-0.580;2022-07-23T11:02:22;2.85;;;1.48;;
69991;SDS011;57332;51.320;-0.580;2022-07-23T11:04:51;3.38;;;1.60;;
69991;SDS011;57332;51.320;-0.580;2022-07-23T11:07:18;3.13;;;1.70;;
69991;SDS011;57332;51.320;-0.580;2022-07-23T11:09:48;2.65;;;1.40;;
69991;SDS011;57332;51.320;-0.580;2022-07-23T11:15:05;4.38;;;1.70;;
69991;SDS011;57332;51.320;-0.580;2022-07-23T11:17:36;2.15;;;1.35;;
69991;SDS011;57332;51.320;-0.580;2022-07-23T11:22:48;1.60;;;1.15;;
69991;SDS011;57332;51.320;-0.580;2022-07-23T11:27:49;2.40;;;1.40;;
69991;SDS011;57332;51.320;-0.580;2022-07-23T11:35:35;3.83;;;1.17;;
69991;SDS011;57332;51.320;-0.580;2022-07-23T11:38:21;2.45;;;1.20;;
69991;SDS011;57332;51.320;-0.580;2022-07-23T11:40:49;2.70;;;1.20;;
69991;SDS011;57332;51.320;-0.580;2022-07-23T11:43:17;2.80;;;1.20;;
69991;SDS011;57332;51.320;-0.580;2022-07-23T11:46:02;2.10;;;1.30;;
69991;SDS011;57332;51.320;-0.580;2022-07-23T11:48:29;1.65;;;1.20;;
69991;SDS011;57332;51.320;-0.580;2022-07-23T11:50:58;2.85;;;1.27;;
69991;SDS011;57332;51.320;-0.580;2022-07-23T11:53:26;4.75;;;1.38;;
69991;SDS011;57332;51.320;-0.580;2022-07-23T11:55:53;1.85;;;1.27;;
69991;SDS011;57332;51.320;-0.580;2022-07-23T11:58:21;2.08;;;1.20;;
69991;SDS011;57332;51.320;-0.580;2022-07-23T12:00:48;2.65;;;1.30;;
69991;SDS011;57332;51.320;-0.580;2022-07-23T12:03:17;2.10;;;1.40;;
69991;SDS011;57332;51.320;-0.580;2022-07-23T12:05:44;2.13;;;1.20;;
69991;SDS011;57332;51.320;-0.580;2022-07-23T12:08:11;2.60;;;1.20;;
69991;SDS011;57332;51.320;-0.580;2022-07-23T12:10:39;2.47;;;1.33;;
69991;SDS011;57332;51.320;-0.580;2022-07-23T12:13:15;2.25;;;1.48;;
69991;SDS011;57332;51.320;-0.580;2022-07-23T12:15:46;1.60;;;1.20;;
69991;SDS011;57332;51.320;-0.580;2022-07-23T12:18:16;2.08;;;1.40;;
69991;SDS011;57332;51.320;-0.580;2022-07-23T12:20:44;2.35;;;1.60;;
69991;SDS011;57332;51.320;-0.580;2022-07-23T12:23:12;2.40;;;1.50;;
69991;SDS011;57332;51.320;-0.580;2022-07-23T12:25:47;3.17;;;1.60;;
69991;SDS011;57332;51.320;-0.580;2022-07-23T12:33:12;2.65;;;1.27;;
69991;SDS011;57332;51.320;-0.580;2022-07-23T12:35:41;2.15;;;1.60;;
69991;SDS011;57332;51.320;-0.580;2022-07-23T12:38:09;2.97;;;1.45;;
69991;SDS011;57332;51.320;-0.580;2022-07-23T12:40:41;2.60;;;1.52;;
69991;SDS011;57332;51.320;-0.580;2022-07-23T12:43:10;2.22;;;1.38;;
69991;SDS011;57332;51.320;-0.580;2022-07-23T12:45:47;3.95;;;1.60;;
69991;SDS011;57332;51.320;-0.580;2022-07-23T12:48:15;2.22;;;1.58;;
69991;SDS011;57332;51.320;-0.580;2022-07-23T12:50:44;2.63;;;1.50;;
69991;SDS011;57332;51.320;-0.580;2022-07-23T12:53:15;2.95;;;1.58;;
69991;SDS011;57332;51.320;-0.580;2022-07-23T12:55:50;2.42;;;1.65;;
69991;SDS011;57332;51.320;-0.580;2022-07-23T13:01:21;2.78;;;1.65;;
69991;SDS011;57332;51.320;-0.580;2022-07-23T13:04:13;2.85;;;1.60;;
69991;SDS011;57332;51.320;-0.580;2022-07-23T13:06:42;3.67;;;1.75;;
69991;SDS011;57332;51.320;-0.580;2022-07-23T13:09:11;3.47;;;1.90;;
69991;SDS011;57332;51.320;-0.580;2022-07-23T13:11:41;3.35;;;2.00;;
69991;SDS011;57332;51.320;-0.580;2022-07-23T13:14:08;4.00;;;1.88;;
69991;SDS011;57332;51.320;-0.580;2022-07-23T13:16:35;3.35;;;1.95;;
69991;SDS011;57332;51.320;-0.580;2022-07-23T13:19:04;3.40;;;1.70;;
69991;SDS011;57332;51.320;-0.580;2022-07-23T13:21:38;2.72;;;1.80;;
69991;SDS011;57332;51.320;-0.580;2022-07-23T13:24:05;3.95;;;2.20;;
69991;SDS011;57332;51.320;-0.580;2022-07-23T13:26:35;2.90;;;1.75;;
69991;SDS011;57332;51.320;-0.580;2022-07-23T13:29:02;3.30;;;1.80;;
69991;SDS011;57332;51.320;-0.580;2022-07-23T13:31:30;3.65;;;1.90;;
69991;SDS011;57332;51.320;-0.580;2022-07-23T13:33:57;3.00;;;1.83;;
69991;SDS011;57332;51.320;-0.580;2022-07-23T13:36:24;3.15;;;2.05;;
69991;SDS011;57332;51.320;-0.580;2022-07-23T13:38:51;5.85;;;1.77;;
69991;SDS011;57332;51.320;-0.580;2022-07-23T13:41:18;3.42;;;1.70;;
69991;SDS011;57332;51.320;-0.580;2022-07-23T13:43:46;3.78;;;1.90;;
69991;SDS011;57332;51.320;-0.580;2022-07-23T13:46:15;4.28;;;1.92;;
69991;SDS011;57332;51.320;-0.580;2022-07-23T13:48:42;3.75;;;1.95;;
69991;SDS011;57332;51.320;-0.580;2022-07-23T13:51:09;3.55;;;1.90;;
69991;SDS011;57332;51.320;-0.580;2022-07-23T13:53:36;5.70;;;2.28;;
69991;SDS011;57332;51.320;-0.580;2022-07-23T13:56:04;3.55;;;1.95;;
69991;SDS011;57332;51.320;-0.580;2022-07-23T13:58:31;2.22;;;1.80;;
69991;SDS011;57332;51.320;-0.580;2022-07-23T14:00:58;4.55;;;2.00;;
69991;SDS011;57332;51.320;-0.580;2022-07-23T14:03:25;3.47;;;1.92;;
69991;SDS011;57332;51.320;-0.580;2022-07-23T14:05:53;3.08;;;1.90;;
69991;SDS011;57332;51.320;-0.580;2022-07-23T14:08:40;3.78;;;2.00;;
69991;SDS011;57332;51.320;-0.580;2022-07-23T14:11:07;2.50;;;1.70;;
69991;SDS011;57332;51.320;-0.580;2022-07-23T14:13:52;3.03;;;1.88;;
69991;SDS011;57332;51.320;-0.580;2022-07-23T14:16:19;4.28;;;1.90;;
69991;SDS011;57332;51.320;-0.580;2022-07-23T14:18:47;3.22;;;1.95;;
69991;SDS011;57332;51.320;-0.580;2022-07-23T14:21:14;3.58;;;1.88;;
69991;SDS011;57332;51.320;-0.580;2022-07-23T14:23:45;2.60;;;1.80;;
69991;SDS011;57332;51.320;-0.580;2022-07-23T14:26:13;2.30;;;1.70;;
69991;SDS011;57332;51.320;-0.580;2022-07-23T14:28:43;3.20;;;2.05;;
69991;SDS011;57332;51.320;-0.580;2022-07-23T14:31:14;3.45;;;1.95;;
69991;SDS011;57332;51.320;-0.580;2022-07-23T14:33:47;5.00;;;2.10;;
69991;SDS011;57332;51.320;-0.580;2022-07-23T14:36:16;2.58;;;1.77;;
69991;SDS011;57332;51.320;-0.580;2022-07-23T14:38:43;3.28;;;1.85;;
69991;SDS011;57332;51.320;-0.580;2022-07-23T14:41:11;2.88;;;1.73;;
69991;SDS011;57332;51.320;-0.580;2022-07-23T14:43:41;3.63;;;2.00;;
69991;SDS011;57332;51.320;-0.580;2022-07-23T14:46:10;2.65;;;1.80;;
69991;SDS011;57332;51.320;-0.580;2022-07-23T14:48:37;2.80;;;1.70;;
69991;SDS011;57332;51.320;-0.580;2022-07-23T14:51:05;2.42;;;1.70;;
69991;SDS011;57332;51.320;-0.580;2022-07-23T14:53:33;2.45;;;1.52;;
69991;SDS011;57332;51.320;-0.580;2022-07-23T14:56:00;2.72;;;1.70;;
69991;SDS011;57332;51.320;-0.580;2022-07-23T14:58:27;4.68;;;1.85;;
69991;SDS011;57332;51.320;-0.580;2022-07-23T15:00:54;2.70;;;1.60;;
69991;SDS011;57332;51.320;-0.580;2022-07-23T15:03:21;3.85;;;1.70;;
69991;SDS011;57332;51.320;-0.580;2022-07-23T15:06:00;4.28;;;1.67;;
69991;SDS011;57332;51.320;-0.580;2022-07-23T15:08:27;3.33;;;1.70;;
69991;SDS011;57332;51.320;-0.580;2022-07-23T15:10:55;4.15;;;1.73;;
69991;SDS011;57332;51.320;-0.580;2022-07-23T15:13:42;2.33;;;1.60;;
69991;SDS011;57332;51.320;-0.580;2022-07-23T15:16:09;2.85;;;1.70;;
69991;SDS011;57332;51.320;-0.580;2022-07-23T15:18:36;2.42;;;1.70;;
69991;SDS011;57332;51.320;-0.580;2022-07-23T15:21:04;2.60;;;1.70;;
69991;SDS011;57332;51.320;-0.580;2022-07-23T15:23:32;2.40;;;1.55;;